Time;durP1;ratioP1;P1;durP2;ratioP2;P2;SDS_P1;SDS_P2;PMS_P1;PMS_P2;Temp;Humidity;BMP_temperature;BMP_pressure;BME280_temperature;BME280_humidity;BME280_pressure;Samples;Min_cycle;Max_cycle;Signal;HPM_P1;HPM_P2
2022/04/23 00:01:31;;;;;;;14.48;5.88;;;;;;;19.04;39.19;101090.22;5071689;28;20484;-77
2022/04/23 00:03:56;;;;;;;20.60;6.40;;;;;;;18.98;39.55;101082.53;5072331;28;20036;-77
2022/04/23 00:06:22;;;;;;;18.42;5.78;;;;;;;19.02;39.46;101084.22;5072482;28;20100;-76
2022/04/23 00:08:48;;;;;;;17.40;5.63;;;;;;;19.20;39.37;101081.03;5072435;28;20107;-81
2022/04/23 00:11:14;;;;;;;16.55;6.28;;;;;;;19.18;39.22;101086.94;5072074;28;20036;-76
2022/04/23 00:13:39;;;;;;;20.70;5.45;;;;;;;18.97;39.83;101073.44;5072180;28;20437;-77
2022/04/23 00:16:05;;;;;;;16.98;5.38;;;;;;;18.85;40.12;101085.41;5072366;28;20025;-76
2022/04/23 00:18:31;;;;;;;13.27;5.18;;;;;;;18.93;40.04;101088.34;5072290;28;20390;-76
2022/04/23 00:20:57;;;;;;;17.92;5.78;;;;;;;18.93;39.95;101078.06;5072495;28;20031;-76
2022/04/23 00:23:24;;;;;;;22.48;5.82;;;;;;;18.87;40.50;101084.25;5072101;28;20029;-75
2022/04/23 00:25:52;;;;;;;18.85;5.32;;;;;;;18.58;41.08;101084.34;5072285;28;20024;-76
2022/04/23 00:28:18;;;;;;;18.48;5.00;;;;;;;18.48;40.98;101095.19;5072116;28;20032;-76
2022/04/23 00:30:47;;;;;;;17.55;4.22;;;;;;;18.48;40.43;101095.19;5072119;28;20115;-76
2022/04/23 00:33:12;;;;;;;13.20;3.60;;;;;;;18.15;41.26;101082.50;5072253;28;20027;-78
2022/04/23 00:35:38;;;;;;;16.40;5.43;;;;;;;18.58;40.18;101078.00;5071674;28;20024;-76
2022/04/23 00:38:05;;;;;;;15.95;4.95;;;;;;;18.52;40.23;101079.47;5071937;28;20410;-76
2022/04/23 00:40:31;;;;;;;16.25;5.60;;;;;;;18.68;39.80;101071.97;5071818;28;20112;-77
2022/04/23 00:42:58;;;;;;;17.10;7.18;;;;;;;18.45;40.22;101069.03;5072038;28;20056;-77
2022/04/23 00:45:28;;;;;;;16.38;5.63;;;;;;;18.34;40.02;101065.19;5054256;28;20052;-77
2022/04/23 00:47:54;;;;;;;10.98;4.15;;;;;;;18.44;39.22;101064.66;5071777;28;20025;-76
2022/04/23 00:50:21;;;;;;;12.98;4.75;;;;;;;18.74;38.89;101062.25;5072091;28;20032;-76
2022/04/23 00:52:57;;;;;;;15.20;4.80;;;;;;;18.65;39.17;101058.81;5072057;28;20032;-77
2022/04/23 00:55:23;;;;;;;13.95;4.65;;;;;;;18.66;39.45;101067.94;5072063;28;20031;-76
2022/04/23 00:57:51;;;;;;;11.25;4.32;;;;;;;18.61;39.28;101066.25;5071939;28;20378;-77
2022/04/23 01:00:18;;;;;;;18.65;5.53;;;;;;;18.73;39.21;101068.13;5071896;28;20382;-76
2022/04/23 01:02:44;;;;;;;17.25;4.80;;;;;;;18.52;39.76;101060.09;5071826;28;20024;-77
2022/04/23 01:05:10;;;;;;;18.20;5.15;;;;;;;18.54;39.73;101068.84;5071920;28;20105;-76
2022/04/23 01:07:43;;;;;;;15.25;6.20;;;;;;;18.75;39.36;101063.84;5071813;28;20028;-76
2022/04/23 01:10:10;;;;;;;14.88;4.47;;;;;;;18.38;39.67;101073.59;5071473;28;20026;-76
2022/04/23 01:12:36;;;;;;;17.88;6.13;;;;;;;18.63;38.88;101061.16;5072525;28;20504;-77
2022/04/23 01:15:09;;;;;;;15.38;4.30;;;;;;;18.26;39.48;101063.41;5075423;28;20020;-78
2022/04/23 01:17:36;;;;;;;16.25;3.70;;;;;;;17.98;39.93;101058.75;5075290;28;20020;-76
2022/04/23 01:20:14;;;;;;;16.85;4.82;;;;;;;18.01;39.99;101062.78;5075399;28;20056;-76
2022/04/23 01:22:43;;;;;;;17.25;5.32;;;;;;;18.50;38.94;101059.63;5075250;28;20075;-76
2022/04/23 01:25:12;;;;;;;20.58;4.82;;;;;;;18.14;39.51;101064.31;5075325;28;20099;-75
2022/04/23 01:27:40;;;;;;;16.73;5.03;;;;;;;18.42;38.58;101068.94;5075207;28;20021;-76
2022/04/23 01:30:07;;;;;;;29.85;5.82;;;;;;;18.49;38.82;101058.84;5074846;28;20485;-76
2022/04/23 01:32:33;;;;;;;19.88;5.53;;;;;;;18.70;38.44;101064.13;5075110;28;20090;-76
2022/04/23 01:34:59;;;;;;;19.38;5.75;;;;;;;18.46;39.05;101056.00;5075370;28;20024;-76
2022/04/23 01:37:25;;;;;;;14.80;5.05;;;;;;;18.39;39.13;101053.84;5074703;28;20440;-76
2022/04/23 01:39:50;;;;;;;16.60;5.57;;;;;;;18.61;38.61;101043.31;5075012;28;20107;-77
2022/04/23 01:42:19;;;;;;;22.67;4.68;;;;;;;18.61;38.49;101044.09;5074916;28;20031;-77
2022/04/23 01:44:49;;;;;;;13.23;4.00;;;;;;;18.48;38.79;101043.41;5074929;28;20090;-78
2022/04/23 01:47:15;;;;;;;;;;;;;;;18.28;38.99;101048.06;5075335;28;20029;-78
2022/04/23 01:49:42;;;;;;;10.20;3.60;;;;;;;18.19;39.08;101032.81;5074617;28;19976;-76
2022/04/23 01:52:08;;;;;;;20.67;5.40;;;;;;;18.51;38.50;101034.41;5074821;28;20068;-76
2022/04/23 01:54:35;;;;;;;17.15;4.70;;;;;;;17.87;40.50;101029.22;5074832;28;20017;-77
2022/04/23 01:57:01;;;;;;;20.48;4.85;;;;;;;17.80;40.82;101029.03;5073370;28;20021;-76
2022/04/23 01:59:27;;;;;;;21.38;4.90;;;;;;;18.00;40.44;101025.22;5074632;28;20050;-76
2022/04/23 02:01:53;;;;;;;21.80;5.78;;;;;;;17.97;40.27;101021.19;5074614;28;20017;-76
2022/04/23 02:04:19;;;;;;;15.98;4.97;;;;;;;17.80;41.35;101031.81;5074488;28;20054;-76
2022/04/23 02:06:45;;;;;;;17.83;5.72;;;;;;;18.08;41.35;101026.22;5074443;28;20016;-76
2022/04/23 02:09:12;;;;;;;24.15;6.38;;;;;;;17.94;42.07;101032.19;5073532;28;20024;-76
2022/04/23 02:11:37;;;;;;;18.63;6.47;;;;;;;17.58;43.46;101041.44;5074375;28;20021;-76
2022/04/23 02:14:03;;;;;;;13.15;6.07;;;;;;;17.88;42.44;101028.88;5074395;28;20131;-76
2022/04/23 02:16:30;;;;;;;14.88;4.85;;;;;;;17.63;43.26;101036.47;5073144;28;20021;-76
2022/04/23 02:18:58;;;;;;;20.35;5.68;;;;;;;17.18;44.37;101029.31;5074291;28;20028;-76
2022/04/23 02:21:25;;;;;;;21.85;6.38;;;;;;;17.30;44.29;101025.69;5074202;28;20024;-77
2022/04/23 02:23:51;;;;;;;23.13;7.78;;;;;;;17.31;44.18;101024.56;5073986;28;20378;-76
2022/04/23 02:26:17;;;;;;;23.15;7.25;;;;;;;17.41;43.53;101004.69;5073507;28;20016;-76
2022/04/23 02:28:42;;;;;;;17.60;5.05;;;;;;;16.87;44.65;101007.91;5089590;28;20025;-78
2022/04/23 02:31:08;;;;;;;19.23;6.60;;;;;;;17.46;43.52;101017.47;5073463;28;20028;-77
2022/04/23 02:33:34;;;;;;;25.45;7.55;;;;;;;17.61;43.24;101024.97;5073994;28;20149;-77
2022/04/23 02:36:00;;;;;;;23.90;6.55;;;;;;;17.78;42.71;101020.31;5089404;28;20395;-77
2022/04/23 02:38:25;;;;;;;28.23;6.55;;;;;;;18.07;42.40;101021.84;5073546;28;20372;-77
2022/04/23 02:40:51;;;;;;;24.80;6.65;;;;;;;17.71;43.47;101012.63;5072926;28;20033;-77
2022/04/23 02:43:17;;;;;;;21.90;6.68;;;;;;;17.48;43.84;101009.63;5073680;28;20076;-77
2022/04/23 02:45:42;;;;;;;21.17;6.32;;;;;;;17.75;43.17;101006.03;5073717;28;20392;-77
2022/04/23 02:48:10;;;;;;;23.05;6.75;;;;;;;17.90;43.21;101003.63;5073440;28;20044;-84
2022/04/23 02:50:37;;;;;;;19.05;6.45;;;;;;;17.94;43.29;101015.59;5073431;28;20016;-77
2022/04/23 02:53:04;;;;;;;31.83;9.48;;;;;;;18.15;43.13;101016.13;5073365;28;20086;-77
2022/04/23 02:55:34;;;;;;;24.13;6.65;;;;;;;17.81;43.46;101006.56;5073479;28;20107;-77
2022/04/23 02:58:10;;;;;;;19.58;6.47;;;;;;;17.47;43.99;101008.00;5073510;28;20027;-78
2022/04/23 03:00:38;;;;;;;18.65;6.95;;;;;;;17.53;44.10;101000.25;5073348;28;20040;-76
2022/04/23 03:03:05;;;;;;;21.45;7.00;;;;;;;17.79;43.79;100994.28;5073569;28;20385;-76
2022/04/23 03:05:31;;;;;;;32.50;7.95;;;;;;;18.19;43.13;101005.16;5073481;28;20028;-76
2022/04/23 03:07:59;;;;;;;23.13;6.80;;;;;;;17.92;43.81;100995.81;5071829;28;20028;-78
2022/04/23 03:10:27;;;;;;;21.35;7.47;;;;;;;17.87;43.81;100988.56;5073323;28;20379;-76
2022/04/23 03:12:53;;;;;;;39.75;8.70;;;;;;;18.20;43.11;100979.91;5073241;28;20033;-76
2022/04/23 03:15:19;;;;;;;24.42;8.88;;;;;;;18.48;42.62;100990.03;5073143;28;20024;-76
2022/04/23 03:17:46;;;;;;;24.33;8.07;;;;;;;18.03;43.61;100994.09;5072901;28;20513;-77
2022/04/23 03:20:13;;;;;;;30.52;10.25;;;;;;;18.08;43.26;100982.78;5088610;28;20016;-76
2022/04/23 03:22:40;;;;;;;27.83;8.02;;;;;;;18.42;42.80;100988.69;5072954;28;20029;-76
2022/04/23 03:25:07;;;;;;;29.23;8.63;;;;;;;18.22;43.23;100983.13;5072974;28;20021;-75
2022/04/23 03:27:33;;;;;;;15.68;6.30;;;;;;;18.06;43.20;100970.44;5071699;28;20024;-76
2022/04/23 03:29:59;;;;;;;27.35;8.85;;;;;;;18.07;43.17;100974.84;5071550;28;20062;-77
2022/04/23 03:32:25;;;;;;;21.83;7.20;;;;;;;18.01;43.48;100971.53;5056346;28;20043;-76
2022/04/23 03:34:51;;;;;;;29.20;8.27;;;;;;;18.16;43.32;100967.16;5052594;28;20083;-76
2022/04/23 03:37:17;;;;;;;23.77;8.25;;;;;;;17.94;44.07;100971.38;5057071;28;20037;-76
2022/04/23 03:39:44;;;;;;;28.45;8.13;;;;;;;17.97;44.30;100973.41;5072683;28;20116;-75
2022/04/23 03:42:10;;;;;;;34.58;9.52;;;;;;;17.72;44.83;100981.88;5088373;28;20430;-83
2022/04/23 03:44:36;;;;;;;26.73;7.90;;;;;;;17.91;44.44;100983.94;5072622;28;20078;-76
2022/04/23 03:47:03;;;;;;;31.50;8.82;;;;;;;18.00;44.32;100989.28;5072462;28;20028;-77
2022/04/23 03:49:31;;;;;;;28.00;7.78;;;;;;;18.53;42.84;100981.47;5072462;28;20049;-85
2022/04/23 03:51:57;;;;;;;29.77;9.45;;;;;;;18.08;44.19;100988.31;5072617;28;20082;-76
2022/04/23 03:54:24;;;;;;;34.63;10.68;;;;;;;18.15;44.15;100994.00;5072600;28;20483;-76
2022/04/23 03:56:50;;;;;;;23.38;7.93;;;;;;;18.20;44.13;100988.19;5072626;28;20044;-77
2022/04/23 03:59:20;;;;;;;23.38;8.45;;;;;;;17.93;44.83;100987.16;5072802;28;20036;-76
2022/04/23 04:01:47;;;;;;;28.92;9.38;;;;;;;18.28;44.08;100987.19;5072559;28;20024;-76
2022/04/23 04:04:14;;;;;;;27.63;10.32;;;;;;;18.30;44.08;100990.44;5072397;28;20482;-77
2022/04/23 04:06:42;;;;;;;18.92;7.47;;;;;;;17.55;46.29;100981.38;5072125;28;20035;-78
2022/04/23 04:09:08;;;;;;;31.17;9.63;;;;;;;18.30;44.47;100986.88;5072709;28;20044;-76
2022/04/23 04:14:32;;;;;;;26.10;8.80;;;;;;;17.89;45.52;100979.91;5058727;28;20041;-76
2022/04/23 04:17:04;;;;;;;29.58;9.13;;;;;;;17.73;45.83;100983.47;5072395;28;20038;-76
2022/04/23 04:19:32;;;;;;;22.95;7.90;;;;;;;17.02;47.95;100975.19;5072349;28;20471;-77
2022/04/23 04:21:58;;;;;;;25.83;10.50;;;;;;;17.36;46.98;100966.28;5072340;28;20037;-77
2022/04/23 04:24:25;;;;;;;27.73;9.63;;;;;;;17.47;46.67;100974.88;5072208;28;20039;-77
2022/04/23 04:26:52;;;;;;;24.90;10.30;;;;;;;17.33;47.27;100971.72;5072233;28;20048;-83
2022/04/23 04:29:18;;;;;;;22.13;7.75;;;;;;;17.62;46.55;100976.84;5072305;28;20029;-77
2022/04/23 04:31:47;;;;;;;25.27;8.60;;;;;;;17.44;47.12;100978.31;5087903;28;20609;-77
2022/04/23 04:34:17;;;;;;;32.50;11.13;;;;;;;17.88;45.73;100976.34;5072328;28;20112;-77
2022/04/23 04:36:43;;;;;;;;;;;;;;;17.97;45.58;100973.41;5072411;28;20465;-77
2022/04/23 04:39:09;;;;;;;32.05;10.48;;;;;;;18.02;45.14;100981.44;5072215;28;19931;-77
2022/04/23 04:41:35;;;;;;;26.60;9.80;;;;;;;17.84;45.65;100981.00;5072257;28;20444;-77
2022/04/23 04:44:08;;;;;;;24.67;7.85;;;;;;;17.47;46.58;100980.41;5072297;28;20493;-78
2022/04/23 04:46:34;;;;;;;20.77;7.40;;;;;;;17.06;47.60;100989.88;5072025;28;20025;-84
2022/04/23 04:49:01;;;;;;;25.30;9.68;;;;;;;16.54;48.58;100985.16;5074909;28;20068;-86
2022/04/23 04:51:27;;;;;;;20.65;7.63;;;;;;;16.87;48.10;100985.81;5076099;28;20029;-78
2022/04/23 04:53:53;;;;;;;25.88;8.77;;;;;;;17.50;46.45;100982.44;5076050;28;20050;-78
2022/04/23 04:56:19;;;;;;;23.17;8.63;;;;;;;17.44;45.75;100987.41;5074547;28;20028;-77
2022/04/23 04:58:48;;;;;;;16.15;7.68;;;;;;;16.97;46.83;100975.44;5075814;28;20029;-77
2022/04/23 05:01:15;;;;;;;15.75;5.80;;;;;;;17.07;46.74;100970.19;5075718;28;20490;-76
2022/04/23 05:03:40;;;;;;;16.30;7.35;;;;;;;17.50;45.42;100978.88;5075683;28;20028;-76
2022/04/23 05:06:09;;;;;;;27.05;8.40;;;;;;;17.56;45.65;100974.69;5075501;28;20474;-77
2022/04/23 05:08:36;;;;;;;41.00;9.15;;;;;;;17.62;45.54;100976.06;5075596;28;20028;-76
2022/04/23 05:11:02;;;;;;;21.02;8.52;;;;;;;17.61;45.71;100979.97;5075561;28;20079;-76
2022/04/23 05:13:29;;;;;;;24.55;8.02;;;;;;;17.47;45.85;100991.44;5075566;28;20027;-76
2022/04/23 05:15:55;;;;;;;19.58;7.45;;;;;;;16.95;47.30;100992.34;5075444;28;20039;-76
2022/04/23 05:18:21;;;;;;;29.70;8.38;;;;;;;17.52;46.01;100985.63;5075369;28;20025;-76
2022/04/23 05:20:46;;;;;;;20.50;8.38;;;;;;;16.49;48.82;100979.91;5075656;28;20024;-76
2022/04/23 05:23:12;;;;;;;36.10;8.27;;;;;;;17.51;46.30;100975.75;5075403;28;20032;-86
2022/04/23 05:25:38;;;;;;;30.08;8.52;;;;;;;17.56;46.16;100980.22;5075330;28;20058;-76
2022/04/23 05:28:04;;;;;;;18.00;7.43;;;;;;;16.94;47.78;100985.22;5075217;28;20479;-85
2022/04/23 05:30:29;;;;;;;25.33;8.10;;;;;;;17.14;47.42;100983.41;5073889;28;20035;-77
2022/04/23 05:32:55;;;;;;;16.15;6.78;;;;;;;16.85;47.93;100976.25;5075099;28;20036;-76
2022/04/23 05:35:21;;;;;;;19.92;7.55;;;;;;;16.61;48.75;100986.19;5074881;28;20024;-77
2022/04/23 05:37:47;;;;;;;23.70;6.75;;;;;;;16.84;48.01;101003.06;5073760;28;20021;-77
2022/04/23 05:40:12;;;;;;;25.70;8.50;;;;;;;17.23;47.20;100999.81;5075097;28;20380;-76
2022/04/23 05:42:38;;;;;;;21.73;7.38;;;;;;;17.07;47.88;100995.03;5074970;28;20029;-77
2022/04/23 05:45:05;;;;;;;21.95;6.65;;;;;;;16.71;48.53;100993.22;5074928;28;20393;-77
2022/04/23 05:47:30;;;;;;;26.58;8.15;;;;;;;17.15;47.58;101007.94;5074944;28;20031;-82
2022/04/23 05:49:56;;;;;;;22.95;7.43;;;;;;;17.33;46.83;101002.91;5074689;28;20048;-77
2022/04/23 05:52:22;;;;;;;21.05;7.30;;;;;;;17.53;46.58;101001.06;5074807;28;20474;-76
2022/04/23 05:54:48;;;;;;;25.70;7.25;;;;;;;16.76;48.79;100994.91;5074914;28;20107;-77
2022/04/23 05:57:14;;;;;;;26.02;8.68;;;;;;;17.30;47.28;100987.00;5074980;28;20028;-82
2022/04/23 05:59:40;;;;;;;22.00;7.30;;;;;;;17.26;47.58;100990.84;5073540;28;20082;-77
2022/04/23 06:02:06;;;;;;;28.80;9.93;;;;;;;17.52;46.91;100988.41;5074441;28;20024;-76
2022/04/23 06:04:32;;;;;;;18.90;7.05;;;;;;;17.44;47.26;100986.59;5074535;28;20028;-77
2022/04/23 06:06:58;;;;;;;17.20;6.05;;;;;;;17.26;47.38;100988.88;5074732;28;20383;-77
2022/04/23 06:09:24;;;;;;;19.42;7.07;;;;;;;17.01;47.95;101002.00;5074557;28;20024;-81
2022/04/23 06:11:49;;;;;;;20.25;6.90;;;;;;;16.95;48.22;100997.06;5074608;28;20067;-77
2022/04/23 06:14:15;;;;;;;25.85;6.78;;;;;;;17.57;46.67;101001.97;5074409;28;20021;-76
2022/04/23 06:16:40;;;;;;;28.58;7.88;;;;;;;17.32;47.48;101006.03;5074513;28;20031;-76
2022/04/23 06:19:06;;;;;;;18.67;6.30;;;;;;;17.23;47.39;101008.09;5074400;28;20020;-77
2022/04/23 06:21:32;;;;;;;25.50;7.03;;;;;;;17.77;46.04;101016.75;5074286;28;20066;-77
2022/04/23 06:23:57;;;;;;;20.73;8.10;;;;;;;17.61;46.68;101022.22;5074263;28;20024;-77
2022/04/23 06:26:23;;;;;;;24.92;8.65;;;;;;;17.60;46.20;101005.97;5074310;28;20036;-77
2022/04/23 06:28:49;;;;;;;28.52;8.50;;;;;;;17.10;47.62;101002.66;5074297;28;20021;-76
2022/04/23 06:31:14;;;;;;;22.75;8.65;;;;;;;17.87;45.77;101007.13;5089776;28;20116;-76
2022/04/23 06:33:42;;;;;;;26.40;9.05;;;;;;;17.55;46.41;101004.28;5073824;28;20155;-88
2022/04/23 06:36:10;;;;;;;20.35;7.53;;;;;;;16.94;48.21;101001.78;5074277;28;20032;-76
2022/04/23 06:38:36;;;;;;;20.63;7.80;;;;;;;16.57;48.71;101018.38;5074370;28;20494;-78
2022/04/23 06:41:02;;;;;;;21.02;7.65;;;;;;;17.01;48.08;101012.22;5071189;28;20078;-78
2022/04/23 06:43:27;;;;;;;20.55;7.07;;;;;;;17.22;47.79;101006.50;5072404;28;20417;-77
2022/04/23 06:45:53;;;;;;;20.23;7.30;;;;;;;17.53;47.54;101005.78;5074136;28;20020;-77
2022/04/23 06:48:18;;;;;;;25.45;8.38;;;;;;;17.78;47.10;101007.28;5073647;28;20072;-77
2022/04/23 06:50:44;;;;;;;24.55;8.23;;;;;;;17.38;47.79;101010.94;5073958;28;20070;-76
2022/04/23 06:53:09;;;;;;;23.40;8.25;;;;;;;17.03;48.79;101010.72;5051455;28;20037;-81
2022/04/23 06:55:35;;;;;;;20.08;8.23;;;;;;;17.23;48.17;101019.16;5050280;28;20052;-77
2022/04/23 06:58:00;;;;;;;18.00;7.32;;;;;;;17.57;47.02;101009.47;5046072;28;20025;-77
2022/04/23 07:00:26;;;;;;;26.75;6.50;;;;;;;17.34;47.88;101017.50;5058231;28;20020;-83
2022/04/23 07:02:52;;;;;;;24.30;9.02;;;;;;;17.69;47.05;101014.94;5057159;28;20050;-77
2022/04/23 07:05:18;;;;;;;19.42;7.00;;;;;;;17.20;47.91;101015.94;5057756;28;20125;-77
2022/04/23 07:08:04;;;;;;;23.83;8.73;;;;;;;17.40;47.39;101027.16;5057560;28;20025;-76
2022/04/23 07:10:31;;;;;;;16.30;6.68;;;;;;;17.74;46.61;101021.00;5055976;28;20040;-77
2022/04/23 07:12:58;;;;;;;17.67;6.28;;;;;;;17.40;47.64;101021.63;5058227;28;20090;-86
2022/04/23 07:15:24;;;;;;;18.75;7.85;;;;;;;17.60;47.15;101015.06;5057095;28;20015;-77
2022/04/23 07:17:50;;;;;;;22.67;8.30;;;;;;;17.52;47.38;101020.75;5056406;28;20532;-77
2022/04/23 07:20:18;;;;;;;24.23;7.72;;;;;;;17.16;48.69;101008.72;5057368;28;20032;-77
2022/04/23 07:24:03;;;;;;;19.60;8.32;;;;;;;17.20;48.24;101015.94;5056793;28;20416;-76
2022/04/23 07:25:35;;;;;;;24.20;8.10;;;;;;;17.71;47.31;101023.69;5056571;28;20487;-77
2022/04/23 07:28:01;;;;;;;19.05;7.38;;;;;;;16.96;49.32;101024.31;5057205;28;20089;-77
2022/04/23 07:30:27;;;;;;;19.33;7.10;;;;;;;17.75;47.55;101019.03;5057489;28;21825;-77
2022/04/23 07:32:53;;;;;;;23.33;6.82;;;;;;;17.29;48.34;101021.31;5071657;28;20028;-76
2022/04/23 07:38:11;;;;;;;31.35;10.38;;;;;;;18.19;46.38;101021.75;5070540;28;20106;-77
2022/04/23 07:40:40;;;;;;;24.30;8.02;;;;;;;18.05;47.05;101026.91;5069851;28;20078;-77
2022/04/23 07:43:10;;;;;;;20.30;7.40;;;;;;;17.97;47.77;101020.41;5071504;28;20029;-77
2022/04/23 07:45:38;;;;;;;;;;;;;;;17.87;48.37;101027.28;5071536;28;20021;-77
2022/04/23 07:48:05;;;;;;;31.48;8.60;;;;;;;18.44;46.70;101016.81;5071545;28;20339;-77
2022/04/23 07:50:32;;;;;;;41.40;10.40;;;;;;;18.76;45.91;101015.63;5071616;28;20025;-77
2022/04/23 07:52:57;;;;;;;21.73;8.25;;;;;;;18.23;47.11;101015.16;5070772;28;20013;-76
2022/04/23 07:55:23;;;;;;;33.75;10.77;;;;;;;18.99;45.24;101014.91;5072419;28;20039;-76
2022/04/23 07:57:49;;;;;;;24.75;7.80;;;;;;;18.30;47.05;101009.78;5072307;28;20024;-88
2022/04/23 08:00:15;;;;;;;32.17;9.27;;;;;;;18.44;46.81;100997.44;5072041;28;20027;-76
2022/04/23 08:02:40;;;;;;;35.25;9.45;;;;;;;18.92;45.51;101004.50;5071523;28;20029;-78
2022/04/23 08:05:09;;;;;;;30.98;10.35;;;;;;;18.57;46.21;100993.41;5071344;28;20021;-76
2022/04/23 08:07:35;;;;;;;30.23;9.73;;;;;;;18.73;45.57;101005.25;5070941;28;20086;-78
2022/04/23 08:10:02;;;;;;;26.02;9.07;;;;;;;18.47;46.49;101000.28;5071430;28;20024;-78
2022/04/23 08:12:28;;;;;;;23.98;8.95;;;;;;;19.09;45.24;101008.78;5072427;28;20040;-85
2022/04/23 08:14:54;;;;;;;31.92;9.48;;;;;;;18.75;46.26;101002.94;5070861;28;20070;-78
2022/04/23 08:17:19;;;;;;;33.83;9.30;;;;;;;18.35;47.04;100996.81;5070686;28;20016;-77
2022/04/23 08:19:45;;;;;;;25.00;9.00;;;;;;;18.78;46.11;100990.34;5071086;28;20031;-82
2022/04/23 08:22:11;;;;;;;23.02;8.40;;;;;;;18.65;46.24;100995.16;5069671;28;20028;-78
2022/04/23 08:24:38;;;;;;;33.05;9.18;;;;;;;18.26;46.89;100995.06;5075363;28;20117;-79
2022/04/23 08:27:03;;;;;;;29.30;9.02;;;;;;;18.66;46.05;100991.25;5075287;28;20451;-79
2022/04/23 08:32:13;;;;;;;22.83;7.82;;;;;;;18.53;46.57;100996.09;5074462;28;20112;-78
2022/04/23 08:34:38;;;;;;;27.08;8.82;;;;;;;18.99;45.42;101003.84;5062392;28;20108;-83
2022/04/23 08:37:04;;;;;;;30.90;8.32;;;;;;;18.89;45.78;100998.84;5045119;28;20028;-76
2022/04/23 08:39:30;;;;;;;21.52;7.65;;;;;;;18.36;46.98;100998.44;5059371;28;20020;-75
2022/04/23 08:41:56;;;;;;;21.65;8.38;;;;;;;18.11;47.52;100993.13;5074035;28;20027;-76
2022/04/23 08:44:22;;;;;;;24.52;7.95;;;;;;;18.13;47.64;100993.53;5075766;28;20032;-75
2022/04/23 08:46:50;;;;;;;23.95;8.27;;;;;;;18.55;46.96;101013.13;5076063;28;20025;-86
2022/04/23 08:49:17;;;;;;;36.13;9.30;;;;;;;18.67;46.77;101014.22;5075673;28;20036;-76
2022/04/23 08:51:52;;;;;;;23.75;7.18;;;;;;;18.00;47.76;101005.88;5075811;28;20032;-76
2022/04/23 08:54:18;;;;;;;18.30;6.55;;;;;;;18.20;47.56;101004.78;5073990;28;20028;-76
2022/04/23 08:56:45;;;;;;;25.65;8.18;;;;;;;18.54;47.29;101003.22;5075822;28;20471;-80
2022/04/23 08:59:12;;;;;;;24.80;8.63;;;;;;;18.22;47.79;101010.78;5075634;28;20027;-75
2022/04/23 09:01:39;;;;;;;23.25;7.40;;;;;;;18.55;46.52;101001.25;5076074;28;20033;-76
2022/04/23 09:04:06;;;;;;;30.73;8.50;;;;;;;19.40;45.05;101008.63;5075591;28;20074;-81
2022/04/23 09:06:43;;;;;;;23.50;7.03;;;;;;;18.80;45.84;101015.69;5075654;28;20031;-76
2022/04/23 09:09:13;;;;;;;37.13;7.85;;;;;;;18.93;45.93;101010.81;5075555;28;20527;-76
2022/04/23 09:11:41;;;;;;;22.73;7.70;;;;;;;19.59;44.61;101021.69;5074723;28;20033;-76
2022/04/23 09:14:08;;;;;;;25.92;8.27;;;;;;;19.55;45.11;101018.00;5073994;28;20072;-79
2022/04/23 09:25:10;;;;;;;21.40;5.82;;;;;;;19.73;43.78;101023.94;5063782;28;20047;-84
2022/04/23 09:27:37;;;;;;;17.52;6.60;;;;;;;19.48;44.28;101025.41;5071077;28;20013;-79
2022/04/23 09:30:08;;;;;;;19.70;6.95;;;;;;;19.12;44.68;101031.03;5074245;28;21410;-77
2022/04/23 09:32:35;;;;;;;21.65;7.32;;;;;;;19.12;44.67;101028.25;5074720;28;20036;-78
2022/04/23 09:35:13;;;;;;;18.98;5.97;;;;;;;18.93;44.74;101014.41;5074710;28;20024;-78
2022/04/23 09:40:28;;;;;;;16.95;6.43;;;;;;;18.78;44.99;101040.97;5075032;28;20040;-77
2022/04/23 09:42:58;;;;;;;24.75;6.63;;;;;;;19.12;44.88;101031.03;5073424;28;20536;-77
2022/04/23 09:45:29;;;;;;;17.77;6.00;;;;;;;18.68;45.62;101032.44;5073449;28;20021;-77
2022/04/23 09:48:04;;;;;;;25.50;8.13;;;;;;;19.68;44.05;101032.56;5086812;28;20093;-77
2022/04/23 09:50:36;;;;;;;20.15;6.13;;;;;;;19.12;45.27;101030.25;5062634;28;20018;-77
2022/04/23 09:53:16;;;;;;;21.20;6.38;;;;;;;19.62;44.01;101034.00;5066660;28;20573;-77
2022/04/23 09:55:42;;;;;;;14.10;7.03;;;;;;;19.77;44.16;101007.34;5064325;28;20052;-77
2022/04/23 09:58:10;;;;;;;22.23;6.53;;;;;;;19.73;43.70;101010.09;5062891;28;20077;-78
2022/04/23 10:00:40;;;;;;;14.60;5.05;;;;;;;18.46;46.70;101004.22;5063129;28;20423;-84
2022/04/23 10:03:07;;;;;;;19.02;5.30;;;;;;;18.55;46.36;100993.75;5062905;28;20048;-77
2022/04/23 10:05:39;;;;;;;19.73;6.25;;;;;;;18.90;45.94;100994.94;5061274;28;20495;-78
2022/04/23 10:08:13;;;;;;;15.13;6.32;;;;;;;17.98;47.32;100972.25;5062523;28;20055;-77
2022/04/23 10:10:56;;;;;;;26.67;8.43;;;;;;;19.24;45.30;100994.06;5061193;28;20086;-84
2022/04/23 10:13:24;;;;;;;18.08;5.90;;;;;;;18.99;45.62;100999.09;5059925;28;20486;-81
2022/04/23 10:15:54;;;;;;;19.55;7.60;;;;;;;18.89;45.55;100985.00;5062867;28;20379;-76
2022/04/23 10:18:21;;;;;;;15.90;6.00;;;;;;;18.72;45.81;100991.78;5061584;28;20097;-77
2022/04/23 10:21:02;;;;;;;13.70;5.90;;;;;;;19.18;45.21;100997.50;5062841;28;20036;-77
2022/04/23 10:23:42;;;;;;;19.60;6.90;;;;;;;19.07;45.54;100994.50;5065274;28;20067;-77
2022/04/23 10:26:07;;;;;;;;;;;;;;;18.62;45.49;100989.56;5058686;28;20459;-81
2022/04/23 10:28:33;;;;;;;20.35;6.25;;;;;;;18.94;45.52;100993.03;5073510;28;19951;-80
2022/04/23 10:31:15;;;;;;;11.35;4.45;;;;;;;18.28;46.67;100995.50;5072878;28;20036;-81
2022/04/23 10:33:54;;;;;;;13.45;4.47;;;;;;;18.26;46.78;100991.50;5073361;28;20444;-84
2022/04/23 10:36:21;;;;;;;9.35;5.35;;;;;;;18.11;46.85;100993.13;5072946;28;20104;-77
2022/04/23 10:38:52;;;;;;;21.73;6.30;;;;;;;19.58;44.56;100999.91;5073831;28;20050;-77
2022/04/23 10:41:23;;;;;;;13.48;5.82;;;;;;;19.59;44.62;101001.50;5059595;28;20048;-78
2022/04/23 10:43:51;;;;;;;16.20;6.32;;;;;;;19.68;44.53;101002.84;5057990;28;20078;-79
2022/04/23 10:46:41;;;;;;;12.32;5.03;;;;;;;18.42;46.33;101002.53;5050683;28;20118;-77
2022/04/23 10:49:24;;;;;;;21.42;7.18;;;;;;;19.16;45.18;101014.47;5057083;28;20041;-79
2022/04/23 10:51:55;;;;;;;18.63;5.78;;;;;;;19.38;44.75;101021.25;5056224;28;20086;-77
2022/04/23 10:54:40;;;;;;;18.30;6.60;;;;;;;19.66;44.57;101013.53;5054494;28;20128;-77
2022/04/23 10:57:10;;;;;;;17.65;5.80;;;;;;;19.26;44.63;101016.66;5050631;28;20055;-79
2022/04/23 10:59:47;;;;;;;18.50;5.47;;;;;;;19.42;44.05;101016.56;5055757;28;20025;-77
2022/04/23 11:02:19;;;;;;;16.48;6.30;;;;;;;19.78;43.87;101012.53;5056157;28;20033;-77
2022/04/23 11:13:29;;;;;;;18.20;6.45;;;;;;;20.57;42.98;101028.53;5073510;28;20551;-76
2022/04/23 11:16:18;;;;;;;15.63;5.55;;;;;;;20.70;42.64;101027.13;5073404;28;20021;-81
2022/04/23 11:18:45;;;;;;;17.45;5.70;;;;;;;20.22;42.81;101020.41;5061114;28;20024;-81
2022/04/23 11:21:23;;;;;;;25.05;6.90;;;;;;;20.17;42.54;101015.16;5054710;28;20517;-77
2022/04/23 11:23:49;;;;;;;16.20;4.90;;;;;;;20.05;42.74;101007.06;5057687;28;20028;-84
2022/04/23 11:26:18;;;;;;;19.38;7.22;;;;;;;20.29;42.68;101023.31;5056954;28;20117;-77
2022/04/23 11:28:45;;;;;;;14.27;5.28;;;;;;;20.42;43.00;101008.06;5056162;28;20107;-77
2022/04/23 11:31:17;;;;;;;19.00;4.75;;;;;;;19.72;44.08;101005.69;5057070;28;20375;-77
2022/04/23 11:33:50;;;;;;;12.48;4.57;;;;;;;20.23;42.83;101014.47;5056422;28;20449;-81
2022/04/23 11:36:18;;;;;;;19.52;5.72;;;;;;;20.64;42.18;101009.22;5050556;28;20040;-78
2022/04/23 11:38:44;;;;;;;14.68;6.30;;;;;;;20.95;41.59;101024.72;5057448;28;20458;-77
2022/04/23 11:41:10;;;;;;;12.98;4.60;;;;;;;20.41;42.24;101012.00;5056825;28;20052;-78
2022/04/23 11:43:39;;;;;;;17.13;5.47;;;;;;;20.71;42.14;101020.41;5056120;28;20025;-78
2022/04/23 11:46:08;;;;;;;17.42;5.10;;;;;;;21.01;41.35;101017.66;5055230;28;20047;-78
2022/04/23 11:48:59;;;;;;;9.88;4.47;;;;;;;20.71;41.82;101019.63;5056475;28;20183;-76